Time;durP1;ratioP1;P1;durP2;ratioP2;P2;SDS_P1;SDS_P2;PMS_P1;PMS_P2;Temp;Humidity;BMP_temperature;BMP_pressure;BME280_temperature;BME280_humidity;BME280_pressure;Samples;Min_cycle;Max_cycle;Signal;HPM_P1;HPM_P2
2022/11/23 00:00:58;;;;;;;23.58;16.67;;;7.10;99.90;;;;;;4923778;28;20058;-60
2022/11/23 00:03:23;;;;;;;20.85;16.27;;;7.10;99.90;;;;;;4921094;28;20051;-60
2022/11/23 00:05:49;;;;;;;25.52;16.88;;;7.10;99.90;;;;;;4922963;28;20058;-60
2022/11/23 00:08:15;;;;;;;22.17;15.77;;;7.10;99.90;;;;;;4922801;28;20127;-60
2022/11/23 00:10:41;;;;;;;21.70;16.65;;;7.20;99.90;;;;;;4918454;28;20035;-61
2022/11/23 00:13:07;;;;;;;20.17;15.93;;;7.20;99.90;;;;;;4925304;28;20133;-60
2022/11/23 00:15:34;;;;;;;21.67;16.20;;;7.10;99.90;;;;;;4907888;28;20402;-60
2022/11/23 00:18:00;;;;;;;25.05;17.23;;;7.10;99.90;;;;;;4922456;28;20542;-61
2022/11/23 00:20:25;;;;;;;22.33;15.95;;;7.20;99.90;;;;;;4921146;28;20051;-60
2022/11/23 00:22:51;;;;;;;26.88;17.52;;;7.20;99.90;;;;;;4916516;28;20098;-61
2022/11/23 00:25:17;;;;;;;24.05;16.77;;;7.20;99.90;;;;;;4926557;28;20051;-60
2022/11/23 00:27:43;;;;;;;23.98;16.48;;;7.20;99.90;;;;;;4902736;28;20059;-61
2022/11/23 00:30:09;;;;;;;22.08;16.10;;;7.20;99.90;;;;;;4920895;28;20110;-61
2022/11/23 00:32:35;;;;;;;28.23;16.52;;;7.20;99.90;;;;;;4921276;28;20079;-61
2022/11/23 00:35:01;;;;;;;26.40;15.82;;;7.20;99.90;;;;;;4919834;28;20623;-61
2022/11/23 00:37:26;;;;;;;25.33;15.60;;;7.30;99.90;;;;;;4928203;28;20062;-60
2022/11/23 00:39:52;;;;;;;23.55;16.33;;;7.30;99.90;;;;;;4922894;28;20098;-61
2022/11/23 00:42:18;;;;;;;26.27;16.05;;;7.30;99.90;;;;;;4919665;28;20139;-60
2022/11/23 00:44:44;;;;;;;24.45;15.95;;;7.30;99.90;;;;;;4925472;28;20070;-60
2022/11/23 00:47:10;;;;;;;23.85;15.60;;;7.30;99.90;;;;;;4921137;28;20123;-59
2022/11/23 00:49:35;;;;;;;20.70;14.73;;;7.30;99.90;;;;;;4921806;28;20087;-60
2022/11/23 00:52:01;;;;;;;19.98;14.38;;;7.30;99.90;;;;;;4920110;28;20812;-60
2022/11/23 00:54:27;;;;;;;24.48;15.68;;;7.30;99.90;;;;;;4921614;28;20143;-60
2022/11/23 00:56:53;;;;;;;20.40;14.52;;;7.30;99.90;;;;;;4928072;28;20106;-60
2022/11/23 00:59:18;;;;;;;21.80;14.90;;;7.40;99.90;;;;;;4924962;28;20059;-60
2022/11/23 01:01:44;;;;;;;22.42;15.02;;;7.40;99.90;;;;;;4928357;28;20514;-60
2022/11/23 01:04:10;;;;;;;23.52;14.65;;;7.40;99.90;;;;;;4931099;28;20047;-61
2022/11/23 01:06:38;;;;;;;21.65;14.32;;;7.40;99.90;;;;;;4921547;28;20055;-61
2022/11/23 01:09:08;;;;;;;21.38;13.57;;;7.40;99.90;;;;;;4928498;28;20162;-61
2022/11/23 01:11:34;;;;;;;23.10;14.85;;;7.40;99.90;;;;;;4922304;28;20043;-60
2022/11/23 01:14:00;;;;;;;23.23;13.93;;;7.40;99.90;;;;;;4922922;28;20070;-61
2022/11/23 01:16:32;;;;;;;21.60;14.32;;;7.40;99.90;;;;;;4924327;28;20506;-61
2022/11/23 01:19:03;;;;;;;24.33;15.00;;;7.50;99.90;;;;;;4924464;28;20048;-61
2022/11/23 01:21:30;;;;;;;24.75;14.52;;;7.50;99.90;;;;;;4919769;28;20087;-61
2022/11/23 01:23:56;;;;;;;22.75;13.50;;;7.50;99.90;;;;;;4919198;28;20478;-61
2022/11/23 01:26:22;;;;;;;24.30;13.35;;;7.50;99.90;;;;;;4920952;28;20077;-61
2022/11/23 01:28:48;;;;;;;21.30;13.10;;;7.50;99.90;;;;;;4925314;28;20090;-61
2022/11/23 01:31:20;;;;;;;21.77;13.77;;;7.50;99.90;;;;;;4919340;28;20099;-60
2022/11/23 01:33:46;;;;;;;20.88;13.45;;;7.50;99.90;;;;;;4923960;28;20162;-61
2022/11/23 01:36:15;;;;;;;20.25;13.57;;;7.50;99.90;;;;;;4920329;28;20054;-60
2022/11/23 01:38:41;;;;;;;24.60;13.88;;;7.50;99.90;;;;;;4921460;28;21072;-60
2022/11/23 01:41:11;;;;;;;21.42;13.40;;;7.60;99.90;;;;;;4912634;28;20078;-61
2022/11/23 01:43:37;;;;;;;19.80;13.05;;;7.60;99.90;;;;;;4902334;29;20056;-61
2022/11/23 01:46:03;;;;;;;20.50;13.55;;;7.60;99.90;;;;;;4884839;29;20060;-61
2022/11/23 01:48:31;;;;;;;18.13;12.60;;;7.60;99.90;;;;;;4883906;29;20100;-61
2022/11/23 01:50:59;;;;;;;23.17;13.13;;;7.60;99.90;;;;;;4897396;29;20052;-60
2022/11/23 01:53:27;;;;;;;19.33;13.63;;;7.60;99.90;;;;;;4870121;29;20052;-60
2022/11/23 01:55:56;;;;;;;24.60;13.55;;;7.60;99.90;;;;;;4898108;29;20048;-60
2022/11/23 01:58:23;;;;;;;21.60;13.02;;;7.60;99.90;;;;;;4913731;29;20555;-61
2022/11/23 02:00:50;;;;;;;22.75;13.68;;;7.60;99.90;;;;;;4905579;29;20087;-61
2022/11/23 02:03:17;;;;;;;19.17;12.70;;;7.60;99.90;;;;;;4897944;29;20075;-61
2022/11/23 02:05:46;;;;;;;20.50;12.88;;;7.60;99.90;;;;;;4886006;29;20051;-60
2022/11/23 02:08:15;;;;;;;22.48;13.13;;;7.60;99.90;;;;;;4887352;29;20083;-61
2022/11/23 02:10:41;;;;;;;26.08;13.93;;;7.60;99.90;;;;;;4894249;29;20059;-61
2022/11/23 02:13:10;;;;;;;24.52;13.07;;;7.70;99.90;;;;;;4907905;29;20230;-61
2022/11/23 02:15:36;;;;;;;23.02;13.50;;;7.70;99.90;;;;;;4898169;29;20614;-60
2022/11/23 02:18:08;;;;;;;19.63;13.38;;;7.70;99.90;;;;;;4906006;29;20051;-61
2022/11/23 02:20:33;;;;;;;23.85;13.70;;;7.70;99.90;;;;;;4907200;29;20139;-60
2022/11/23 02:23:31;;;;;;;19.15;13.05;;;7.70;99.90;;;;;;4906822;29;20040;-60
2022/11/23 02:26:02;;;;;;;22.40;13.60;;;7.70;99.90;;;;;;4863413;29;20063;-60
2022/11/23 02:28:43;;;;;;;20.20;14.13;;;7.70;99.90;;;;;;4889675;29;20052;-60
2022/11/23 02:31:09;;;;;;;24.45;13.82;;;7.70;99.90;;;;;;4906626;29;20436;-60
2022/11/23 02:33:39;;;;;;;20.92;13.70;;;7.70;99.90;;;;;;4904307;29;20048;-58
2022/11/23 02:36:35;;;;;;;25.80;13.98;;;7.70;99.90;;;;;;4893868;29;20044;-61
2022/11/23 02:39:09;;;;;;;22.83;14.50;;;7.70;99.90;;;;;;4908298;29;20047;-61
2022/11/23 02:41:46;;;;;;;22.67;13.43;;;7.70;99.90;;;;;;4894150;29;20063;-61
2022/11/23 02:44:30;;;;;;;24.80;14.80;;;7.70;99.90;;;;;;4902848;29;20052;-61
2022/11/23 02:46:57;;;;;;;21.48;13.88;;;7.70;99.90;;;;;;4890689;29;20060;-61
2022/11/23 02:49:23;;;;;;;23.50;13.98;;;7.70;99.90;;;;;;4887041;29;20052;-61
2022/11/23 02:51:49;;;;;;;19.83;13.77;;;7.70;99.90;;;;;;4904557;29;20047;-61
2022/11/23 02:54:15;;;;;;;24.77;13.48;;;7.70;99.90;;;;;;4903129;29;20407;-61
2022/11/23 02:56:41;;;;;;;25.00;14.82;;;7.80;99.90;;;;;;4888840;29;20087;-60
2022/11/23 02:59:07;;;;;;;27.40;13.98;;;7.70;99.90;;;;;;4881663;29;20921;-61
2022/11/23 03:01:33;;;;;;;24.15;14.57;;;7.70;99.90;;;;;;4886203;29;20138;-62
2022/11/23 03:03:58;;;;;;;22.50;13.93;;;7.70;99.90;;;;;;4887764;29;20233;-61
2022/11/23 03:06:24;;;;;;;27.83;14.73;;;7.70;99.90;;;;;;4886890;29;20130;-61
2022/11/23 03:08:50;;;;;;;21.30;13.80;;;7.70;99.90;;;;;;4906183;29;20501;-61
2022/11/23 03:11:16;;;;;;;22.20;14.07;;;7.80;99.90;;;;;;4904235;29;20047;-61
2022/11/23 03:13:42;;;;;;;21.30;13.90;;;7.70;99.90;;;;;;4904053;29;20043;-61
2022/11/23 03:16:08;;;;;;;24.73;13.50;;;7.80;99.90;;;;;;4902868;29;20092;-61
2022/11/23 03:18:34;;;;;;;21.50;13.95;;;7.70;99.90;;;;;;4892068;29;20056;-61
2022/11/23 03:21:05;;;;;;;22.52;14.43;;;7.70;99.90;;;;;;4889114;29;20080;-60
2022/11/23 03:23:31;;;;;;;25.75;14.32;;;7.70;99.90;;;;;;4905208;29;20047;-61
2022/11/23 03:25:58;;;;;;;22.08;13.90;;;7.70;99.90;;;;;;4894364;29;20588;-61
2022/11/23 03:28:24;;;;;;;20.73;13.77;;;7.70;99.90;;;;;;4887150;29;20051;-61
2022/11/23 03:30:50;;;;;;;20.00;13.30;;;7.80;99.90;;;;;;4901950;29;20055;-61
2022/11/23 03:33:17;;;;;;;22.88;14.27;;;7.80;99.90;;;;;;4889073;29;20075;-61
2022/11/23 03:35:43;;;;;;;22.27;13.82;;;7.80;99.90;;;;;;4901430;29;20673;-61
2022/11/23 03:38:09;;;;;;;25.08;14.07;;;7.80;99.90;;;;;;4885386;29;22611;-60
2022/11/23 03:40:35;;;;;;;22.40;14.18;;;7.80;99.90;;;;;;4904236;29;20095;-60
2022/11/23 03:43:00;;;;;;;22.75;13.32;;;7.80;99.90;;;;;;4901620;29;20111;-59
2022/11/23 03:45:26;;;;;;;25.67;14.52;;;7.80;99.90;;;;;;4901888;29;20054;-61
2022/11/23 03:47:52;;;;;;;21.98;14.45;;;7.80;99.90;;;;;;4902584;29;20352;-61
2022/11/23 03:50:18;;;;;;;25.67;14.27;;;7.80;99.90;;;;;;4888212;29;20166;-59
2022/11/23 03:52:44;;;;;;;23.13;14.38;;;7.80;99.90;;;;;;4902510;29;20615;-59
2022/11/23 03:55:10;;;;;;;27.35;14.50;;;7.80;99.90;;;;;;4901823;29;20050;-61
2022/11/23 03:57:36;;;;;;;29.67;14.95;;;7.80;99.90;;;;;;4902331;29;20052;-61
2022/11/23 04:00:03;;;;;;;28.90;15.98;;;7.80;99.90;;;;;;4903194;29;20055;-60
2022/11/23 04:02:28;;;;;;;23.67;15.02;;;7.80;99.90;;;;;;4881633;29;20465;-61
2022/11/23 04:04:54;;;;;;;24.27;14.55;;;7.80;99.90;;;;;;4899895;29;20040;-60
2022/11/23 04:07:20;;;;;;;24.85;15.30;;;7.80;99.90;;;;;;4901785;29;20062;-60
2022/11/23 04:09:46;;;;;;;28.10;16.33;;;7.80;99.90;;;;;;4900753;29;20055;-60
2022/11/23 04:12:11;;;;;;;27.83;16.48;;;7.80;99.90;;;;;;4890003;29;20055;-60
2022/11/23 04:14:37;;;;;;;27.30;16.38;;;7.80;99.90;;;;;;4901415;29;20150;-61
2022/11/23 04:17:03;;;;;;;32.88;16.85;;;7.80;99.90;;;;;;4891068;29;20076;-60
2022/11/23 04:19:29;;;;;;;28.88;16.50;;;7.90;99.90;;;;;;4883231;29;20498;-60
2022/11/23 04:21:55;;;;;;;32.90;17.20;;;7.80;99.90;;;;;;4882236;29;20044;-61
2022/11/23 04:24:21;;;;;;;30.38;16.92;;;7.80;99.90;;;;;;4906182;29;20058;-60
2022/11/23 04:26:47;;;;;;;29.27;17.33;;;7.80;99.90;;;;;;4894046;29;20051;-60
2022/11/23 04:29:13;;;;;;;31.02;17.63;;;7.80;99.90;;;;;;4903652;29;20056;-60
2022/11/23 04:31:38;;;;;;;33.97;17.90;;;7.80;99.90;;;;;;4903700;29;20048;-61
2022/11/23 04:34:04;;;;;;;35.13;19.23;;;7.80;99.90;;;;;;4906800;29;20443;-60
2022/11/23 04:36:30;;;;;;;34.10;18.45;;;7.80;99.90;;;;;;4904623;29;20168;-60
2022/11/23 04:38:56;;;;;;;30.80;18.50;;;7.80;99.90;;;;;;4888170;29;20131;-60
2022/11/23 04:41:22;;;;;;;29.52;19.00;;;7.80;99.90;;;;;;4912518;28;20055;-61
2022/11/23 04:43:48;;;;;;;33.50;19.42;;;7.90;99.90;;;;;;4925989;28;20039;-61
2022/11/23 04:46:14;;;;;;;32.92;18.17;;;7.80;99.90;;;;;;4924594;28;20063;-59
2022/11/23 04:48:41;;;;;;;38.75;20.55;;;7.80;99.90;;;;;;4925841;28;20051;-60
2022/11/23 04:51:06;;;;;;;37.70;20.33;;;7.80;99.90;;;;;;4925395;28;20548;-59
2022/11/23 04:53:32;;;;;;;36.25;19.95;;;7.80;99.90;;;;;;4928827;28;20043;-60
2022/11/23 04:55:58;;;;;;;31.63;19.23;;;7.90;99.90;;;;;;4919435;28;20047;-61
2022/11/23 04:58:24;;;;;;;35.95;20.40;;;7.80;99.90;;;;;;4921542;28;20078;-61
2022/11/23 05:00:50;;;;;;;32.08;20.33;;;7.80;99.90;;;;;;4922042;28;20059;-61
2022/11/23 05:03:15;;;;;;;43.30;21.52;;;7.80;99.90;;;;;;4923085;28;20399;-60
2022/11/23 05:05:41;;;;;;;38.17;20.83;;;7.80;99.90;;;;;;4935715;28;20158;-60
2022/11/23 05:08:08;;;;;;;38.33;20.92;;;7.80;99.90;;;;;;4921342;28;20051;-60
2022/11/23 05:10:35;;;;;;;38.75;20.30;;;7.80;99.90;;;;;;4920447;28;20677;-60
2022/11/23 05:13:01;;;;;;;36.15;20.52;;;7.80;99.90;;;;;;4917574;28;20087;-61
2022/11/23 05:15:27;;;;;;;36.15;20.85;;;7.70;99.90;;;;;;4923871;28;20131;-61
2022/11/23 05:17:53;;;;;;;33.97;20.10;;;7.70;99.90;;;;;;4921402;28;20043;-59
2022/11/23 05:20:20;;;;;;;40.95;22.05;;;7.80;99.90;;;;;;4920306;28;20058;-62
2022/11/23 05:22:46;;;;;;;39.25;20.90;;;7.60;99.90;;;;;;4919471;28;20418;-59
2022/11/23 05:25:11;;;;;;;36.15;21.60;;;7.80;99.90;;;;;;4924713;28;20044;-61
2022/11/23 05:27:37;;;;;;;38.65;21.58;;;7.80;99.90;;;;;;4908042;28;20047;-61
2022/11/23 05:30:03;;;;;;;39.25;22.48;;;7.80;99.90;;;;;;4926534;28;20055;-60
2022/11/23 05:32:29;;;;;;;36.90;21.35;;;7.80;99.90;;;;;;4919396;28;20047;-61
2022/11/23 05:34:55;;;;;;;39.88;22.63;;;7.80;99.90;;;;;;4919202;28;20114;-60
2022/11/23 05:37:21;;;;;;;43.78;22.63;;;7.80;99.90;;;;;;4926334;28;20109;-61
2022/11/23 05:39:46;;;;;;;36.00;21.95;;;7.80;99.90;;;;;;4921294;28;20063;-60
2022/11/23 05:42:12;;;;;;;43.25;22.95;;;7.80;99.90;;;;;;4908401;28;20071;-61
2022/11/23 05:44:38;;;;;;;44.58;23.40;;;7.80;99.90;;;;;;4902084;29;20064;-61
2022/11/23 05:47:04;;;;;;;41.40;23.17;;;7.80;99.90;;;;;;4904921;29;20474;-61
2022/11/23 05:49:30;;;;;;;39.53;22.95;;;7.80;99.90;;;;;;4892608;29;20055;-60
2022/11/23 05:51:56;;;;;;;47.25;23.25;;;7.80;99.90;;;;;;4906813;29;20044;-59
2022/11/23 05:54:22;;;;;;;37.05;22.33;;;7.90;99.90;;;;;;4905843;29;20063;-61
2022/11/23 05:56:47;;;;;;;42.60;23.17;;;7.80;99.90;;;;;;4906199;29;20055;-59
2022/11/23 05:59:13;;;;;;;48.70;24.17;;;7.90;99.90;;;;;;4889612;29;20488;-60
2022/11/23 06:01:39;;;;;;;39.10;23.02;;;7.90;99.90;;;;;;4886524;29;21085;-61
2022/11/23 06:04:05;;;;;;;41.33;23.52;;;7.90;99.90;;;;;;4897340;29;20134;-61
2022/11/23 06:06:31;;;;;;;38.95;24.15;;;7.80;99.90;;;;;;4902262;29;20826;-60
2022/11/23 06:08:57;;;;;;;39.88;23.70;;;7.90;99.90;;;;;;4904625;29;20064;-61
2022/11/23 06:11:22;;;;;;;41.47;23.98;;;7.90;99.90;;;;;;4902114;29;20043;-60
2022/11/23 06:13:49;;;;;;;38.38;22.80;;;7.90;99.90;;;;;;4905013;29;20110;-61
2022/11/23 06:16:15;;;;;;;42.95;23.70;;;7.90;99.90;;;;;;4900701;29;20086;-60
2022/11/23 06:18:41;;;;;;;42.55;23.60;;;7.90;99.90;;;;;;4870943;29;20040;-61
2022/11/23 06:21:06;;;;;;;38.67;23.30;;;7.90;99.90;;;;;;4881183;29;20067;-61
2022/11/23 06:23:32;;;;;;;41.85;22.70;;;7.90;99.90;;;;;;4904057;29;20044;-61
2022/11/23 06:26:01;;;;;;;41.58;22.27;;;8.00;99.90;;;;;;4900284;29;20044;-60
2022/11/23 06:28:28;;;;;;;41.47;22.08;;;8.00;99.90;;;;;;4900101;29;20115;-61
2022/11/23 06:30:54;;;;;;;38.33;22.35;;;8.00;99.90;;;;;;4900846;29;20531;-61
2022/11/23 06:33:20;;;;;;;37.58;21.95;;;8.00;99.90;;;;;;4897699;29;20135;-61
2022/11/23 06:35:53;;;;;;;37.95;21.67;;;8.00;99.90;;;;;;4902665;29;20044;-59
2022/11/23 06:38:19;;;;;;;;;;;8.00;99.90;;;;;;4905246;29;20626;-60
2022/11/23 06:40:44;;;;;;;35.55;20.08;;;8.00;99.90;;;;;;4906498;29;19927;-61
2022/11/23 06:43:10;;;;;;;37.78;20.55;;;8.00;99.90;;;;;;4887406;29;20106;-61
2022/11/23 06:45:36;;;;;;;37.80;19.83;;;8.00;99.90;;;;;;4903093;29;20173;-61
2022/11/23 06:48:02;;;;;;;36.47;19.20;;;8.00;99.90;;;;;;4891564;29;20192;-60
2022/11/23 06:50:27;;;;;;;35.95;19.73;;;8.00;99.90;;;;;;4906028;29;20044;-61
2022/11/23 06:52:56;;;;;;;34.42;19.80;;;7.90;99.90;;;;;;4883963;29;20135;-61
2022/11/23 06:55:23;;;;;;;33.58;17.38;;;7.90;99.90;;;;;;4888839;29;20852;-61
2022/11/23 06:57:49;;;;;;;34.50;18.20;;;7.90;99.90;;;;;;4889386;29;20047;-61
2022/11/23 07:00:16;;;;;;;29.45;17.55;;;7.90;99.90;;;;;;4886669;29;20463;-61
2022/11/23 07:02:41;;;;;;;27.38;16.15;;;7.90;99.90;;;;;;4901280;29;20043;-60
2022/11/23 07:05:08;;;;;;;30.13;16.55;;;7.90;99.90;;;;;;4890920;29;20051;-60
2022/11/23 07:07:33;;;;;;;29.65;16.35;;;7.90;99.90;;;;;;4900380;29;20071;-60
2022/11/23 07:09:59;;;;;;;29.13;16.73;;;7.90;99.90;;;;;;4888151;29;20051;-61
2022/11/23 07:12:25;;;;;;;27.30;15.35;;;7.90;99.90;;;;;;4898898;29;20059;-61
2022/11/23 07:14:51;;;;;;;28.75;15.15;;;7.90;99.90;;;;;;4893354;29;20048;-61
2022/11/23 07:17:17;;;;;;;27.02;15.27;;;7.90;99.90;;;;;;4911604;29;20485;-61
2022/11/23 07:19:43;;;;;;;27.35;14.38;;;7.80;99.90;;;;;;4890911;29;20487;-60
2022/11/23 07:22:09;;;;;;;31.50;14.52;;;7.90;99.90;;;;;;4904167;29;20130;-61
2022/11/23 07:24:34;;;;;;;26.38;14.70;;;7.80;99.90;;;;;;4897012;29;20475;-61
2022/11/23 07:27:00;;;;;;;25.92;14.27;;;7.80;99.90;;;;;;4887646;29;20066;-60
2022/11/23 07:29:26;;;;;;;25.08;13.70;;;7.80;99.90;;;;;;4907817;29;20048;-61
2022/11/23 07:31:52;;;;;;;23.95;13.45;;;7.80;99.90;;;;;;4905735;29;20075;-60
2022/11/23 07:34:18;;;;;;;24.23;13.75;;;7.80;99.90;;;;;;4893209;29;20055;-61
2022/11/23 07:36:43;;;;;;;22.35;12.60;;;7.90;99.90;;;;;;4906347;29;20044;-61
2022/11/23 07:39:10;;;;;;;22.45;12.65;;;7.80;99.90;;;;;;4874782;29;20051;-61
2022/11/23 07:41:36;;;;;;;21.67;12.75;;;7.80;99.90;;;;;;4914006;28;20477;-61
2022/11/23 07:44:02;;;;;;;22.60;11.52;;;7.80;99.90;;;;;;4923202;28;20148;-61
2022/11/23 07:46:28;;;;;;;18.98;11.65;;;7.80;99.90;;;;;;4921436;28;20118;-60
2022/11/23 07:48:58;;;;;;;23.40;11.30;;;7.80;99.90;;;;;;4925791;28;20085;-60
2022/11/23 07:51:24;;;;;;;23.63;11.40;;;7.80;99.90;;;;;;4924216;28;20054;-61
2022/11/23 07:53:50;;;;;;;24.08;12.02;;;7.80;99.90;;;;;;4930539;28;20059;-61
2022/11/23 07:56:15;;;;;;;22.48;11.13;;;7.80;99.90;;;;;;4924241;28;20411;-59
2022/11/23 07:58:41;;;;;;;24.17;11.38;;;7.80;99.90;;;;;;4921974;28;20363;-61
2022/11/23 08:01:07;;;;;;;21.08;10.48;;;7.80;99.90;;;;;;4938197;28;20063;-61
2022/11/23 08:03:33;;;;;;;23.63;10.63;;;7.80;99.90;;;;;;4926515;28;20054;-59
2022/11/23 08:05:59;;;;;;;25.52;11.07;;;7.80;99.90;;;;;;4930483;28;20054;-61
2022/11/23 08:08:25;;;;;;;20.33;10.43;;;7.80;99.90;;;;;;4928198;28;20059;-61
2022/11/23 08:10:50;;;;;;;23.10;10.63;;;7.80;99.90;;;;;;4924252;28;20063;-60
2022/11/23 08:13:16;;;;;;;19.20;9.82;;;7.80;99.90;;;;;;4924098;28;20746;-61
2022/11/23 08:15:42;;;;;;;20.13;10.15;;;7.80;99.90;;;;;;4924464;28;20054;-61
2022/11/23 08:18:09;;;;;;;20.48;10.15;;;7.80;99.90;;;;;;4925199;28;20047;-61
2022/11/23 08:20:34;;;;;;;24.02;10.52;;;7.80;99.90;;;;;;4920674;28;20138;-61
2022/11/23 08:23:00;;;;;;;17.45;9.85;;;7.80;99.90;;;;;;4921089;28;20032;-61
2022/11/23 08:25:28;;;;;;;19.70;9.48;;;7.80;99.90;;;;;;4923514;28;20052;-60
2022/11/23 08:27:59;;;;;;;22.35;9.02;;;7.80;99.90;;;;;;4919042;29;20581;-61
2022/11/23 08:30:25;;;;;;;21.90;10.00;;;7.90;99.90;;;;;;4927156;28;20679;-61
2022/11/23 08:32:51;;;;;;;20.77;8.52;;;7.90;99.90;;;;;;4924117;28;20050;-61
2022/11/23 08:35:17;;;;;;;17.13;8.57;;;7.90;99.90;;;;;;4923532;28;20055;-60
2022/11/23 08:37:43;;;;;;;16.80;8.60;;;7.90;99.90;;;;;;4924953;28;20101;-61
2022/11/23 08:40:09;;;;;;;20.67;8.13;;;7.90;99.90;;;;;;4924701;28;20719;-61
2022/11/23 08:42:35;;;;;;;25.50;9.10;;;7.90;99.90;;;;;;4926256;28;20476;-61
2022/11/23 08:45:03;;;;;;;15.18;8.32;;;7.90;99.90;;;;;;4929360;28;20099;-60
2022/11/23 08:47:30;;;;;;;13.98;7.30;;;7.90;99.90;;;;;;4915711;28;20130;-60
2022/11/23 08:49:56;;;;;;;19.27;7.65;;;7.90;99.90;;;;;;4926744;28;20443;-60
2022/11/23 08:52:22;;;;;;;19.00;8.07;;;8.00;99.90;;;;;;4937686;29;20087;-61
2022/11/23 08:54:47;;;;;;;19.38;8.25;;;8.00;99.90;;;;;;4926093;28;20218;-61
2022/11/23 08:57:13;;;;;;;21.48;7.90;;;8.00;99.90;;;;;;4928333;28;20047;-60
2022/11/23 08:59:39;;;;;;;19.88;7.53;;;8.00;99.90;;;;;;4924336;28;20055;-60
2022/11/23 09:02:05;;;;;;;16.52;7.72;;;8.00;99.90;;;;;;4930750;28;20043;-61
2022/11/23 09:04:31;;;;;;;17.95;7.82;;;8.00;99.90;;;;;;4923669;28;20043;-61
2022/11/23 09:06:57;;;;;;;17.58;7.82;;;8.10;99.90;;;;;;4923562;28;20054;-60
2022/11/23 09:09:23;;;;;;;14.98;6.82;;;8.10;99.90;;;;;;4925078;28;20044;-60
2022/11/23 09:11:48;;;;;;;23.60;7.45;;;8.10;99.90;;;;;;4926488;28;20055;-61
2022/11/23 09:14:14;;;;;;;15.63;6.60;;;8.10;99.90;;;;;;4924338;28;20054;-61
2022/11/23 09:16:40;;;;;;;17.40;6.88;;;8.10;99.90;;;;;;4922953;28;20047;-61
2022/11/23 09:19:07;;;;;;;19.23;7.50;;;8.20;99.90;;;;;;4922141;28;20094;-61
2022/11/23 09:21:34;;;;;;;20.40;6.90;;;8.20;99.90;;;;;;4923654;28;20937;-61
2022/11/23 09:24:00;;;;;;;22.33;6.97;;;8.20;99.90;;;;;;4930012;28;20129;-61
2022/11/23 09:26:26;;;;;;;17.77;6.70;;;8.20;99.90;;;;;;4920493;28;20130;-60
2022/11/23 09:28:52;;;;;;;16.42;7.35;;;8.20;99.90;;;;;;4930000;28;20044;-59
2022/11/23 09:31:18;;;;;;;19.33;7.32;;;8.20;99.90;;;;;;4909907;29;20047;-60
2022/11/23 09:33:44;;;;;;;22.85;7.80;;;8.30;99.90;;;;;;4930118;28;20043;-61
2022/11/23 09:36:10;;;;;;;18.42;6.97;;;8.30;99.90;;;;;;4929290;28;20047;-61
2022/11/23 09:38:36;;;;;;;17.05;6.88;;;8.30;99.90;;;;;;4929219;28;20050;-61
2022/11/23 09:41:24;;;;;;;18.88;6.70;;;8.40;99.90;;;;;;4924127;28;20106;-61
2022/11/23 09:43:55;;;;;;;18.75;6.80;;;8.40;99.90;;;;;;4906093;29;20056;-60
2022/11/23 09:47:08;;;;;;;17.98;6.97;;;8.50;99.90;;;;;;4886787;29;20155;-61
2022/11/23 09:49:55;;;;;;;16.58;5.97;;;8.50;99.90;;;;;;4854374;29;20161;-61
2022/11/23 09:52:23;;;;;;;16.02;5.97;;;8.60;99.90;;;;;;4899192;29;20060;-61
2022/11/23 09:54:55;;;;;;;15.95;5.72;;;8.60;99.90;;;;;;4886462;29;20058;-61
2022/11/23 09:57:26;;;;;;;17.52;5.63;;;8.60;99.90;;;;;;4903570;29;20052;-61
2022/11/23 10:00:05;;;;;;;17.23;5.97;;;8.70;99.90;;;;;;4902276;29;20063;-60
2022/11/23 10:02:38;;;;;;;16.33;5.35;;;8.70;99.90;;;;;;4902439;29;20048;-60
2022/11/23 10:05:04;;;;;;;19.10;5.25;;;8.70;99.90;;;;;;4904337;29;20050;-60
2022/11/23 10:07:45;;;;;;;18.15;5.47;;;8.70;99.90;;;;;;4904535;29;20618;-61
2022/11/23 10:10:42;;;;;;;12.93;4.72;;;8.70;99.90;;;;;;4892614;29;20056;-60
2022/11/23 10:13:25;;;;;;;12.32;4.85;;;8.70;99.90;;;;;;4904528;29;20047;-61
2022/11/23 10:15:59;;;;;;;19.27;5.55;;;8.70;99.90;;;;;;4904007;29;20044;-61
2022/11/23 10:18:35;;;;;;;16.27;5.70;;;8.70;99.90;;;;;;4903176;29;20098;-61
2022/11/23 10:21:23;;;;;;;17.58;5.03;;;8.70;99.90;;;;;;4905061;29;20132;-61
2022/11/23 10:23:54;;;;;;;15.68;5.72;;;8.70;99.90;;;;;;4901921;29;20056;-61
2022/11/23 10:26:29;;;;;;;15.75;5.53;;;8.70;99.90;;;;;;4901285;29;20131;-61
2022/11/23 10:29:01;;;;;;;16.00;5.63;;;8.70;99.90;;;;;;4888526;29;20051;-61
2022/11/23 10:31:27;;;;;;;18.67;5.10;;;8.70;99.90;;;;;;4902286;29;20171;-61
2022/11/23 10:34:20;;;;;;;16.38;5.88;;;8.80;99.90;;;;;;4906432;29;20054;-61
2022/11/23 10:36:46;;;;;;;13.57;5.13;;;8.70;99.90;;;;;;4905343;29;20083;-61
2022/11/23 10:39:22;;;;;;;16.85;5.22;;;8.70;99.90;;;;;;4898049;29;20130;-61
2022/11/23 10:41:53;;;;;;;18.08;5.75;;;8.80;99.90;;;;;;4912467;28;20142;-61
2022/11/23 10:44:36;;;;;;;19.27;5.53;;;8.80;99.90;;;;;;4923156;28;20055;-62
2022/11/23 10:47:03;;;;;;;13.55;5.30;;;8.80;99.90;;;;;;4923668;28;20079;-62
2022/11/23 10:49:34;;;;;;;19.00;5.38;;;8.70;99.90;;;;;;4924489;28;20075;-61
2022/11/23 10:52:27;;;;;;;17.95;5.07;;;8.80;99.90;;;;;;4924594;28;20091;-61
2022/11/23 10:54:57;;;;;;;16.58;5.53;;;8.80;99.90;;;;;;4924094;28;20039;-61
2022/11/23 10:57:35;;;;;;;14.88;4.60;;;8.80;99.90;;;;;;4926391;28;20050;-61
2022/11/23 11:00:11;;;;;;;20.15;5.07;;;8.80;99.90;;;;;;4923647;28;20051;-61
2022/11/23 11:02:44;;;;;;;18.55;4.97;;;8.70;99.90;;;;;;4924474;28;20047;-61
2022/11/23 11:05:28;;;;;;;12.90;4.93;;;8.70;99.90;;;;;;4924502;28;20108;-60
2022/11/23 11:07:55;;;;;;;14.00;4.82;;;8.70;99.90;;;;;;4924151;28;20062;-59
2022/11/23 11:10:37;;;;;;;15.57;5.03;;;8.80;99.90;;;;;;4923873;28;20067;-60
2022/11/23 11:13:19;;;;;;;23.45;5.28;;;8.80;99.90;;;;;;4920625;28;20044;-61
2022/11/23 11:15:54;;;;;;;17.23;4.95;;;8.90;99.90;;;;;;4925660;28;20074;-61
2022/11/23 11:18:22;;;;;;;16.65;5.25;;;9.00;99.90;;;;;;4921783;28;20059;-61
2022/11/23 11:20:56;;;;;;;18.75;4.47;;;9.00;99.90;;;;;;4923593;28;20576;-62
2022/11/23 11:23:23;;;;;;;17.45;5.15;;;9.10;99.90;;;;;;4923916;28;20499;-61
2022/11/23 11:26:00;;;;;;;13.43;4.40;;;9.20;99.90;;;;;;4923320;28;20040;-60
2022/11/23 11:28:40;;;;;;;12.63;4.35;;;9.20;99.90;;;;;;4924515;28;20055;-62
2022/11/23 11:31:25;;;;;;;19.75;4.35;;;9.30;99.90;;;;;;4925276;28;20403;-62
2022/11/23 11:34:05;;;;;;;11.85;4.63;;;9.40;99.90;;;;;;4927331;28;20075;-62
2022/11/23 11:36:39;;;;;;;13.82;4.55;;;9.60;99.90;;;;;;4926667;28;20051;-61
2022/11/23 11:39:15;;;;;;;20.05;4.22;;;9.70;99.90;;;;;;4925043;28;20538;-62
2022/11/23 11:41:43;;;;;;;12.57;3.63;;;9.70;99.90;;;;;;4917047;28;20064;-62
2022/11/23 11:44:18;;;;;;;13.32;3.67;;;9.80;99.90;;;;;;4887134;29;20044;-62
2022/11/23 11:46:49;;;;;;;15.18;3.70;;;9.80;99.90;;;;;;4906108;29;20047;-61
2022/11/23 11:49:28;;;;;;;16.98;3.95;;;9.80;99.90;;;;;;4905779;29;20147;-61
2022/11/23 11:52:04;;;;;;;12.85;3.65;;;9.80;99.90;;;;;;4897167;29;20166;-61
2022/11/23 11:54:42;;;;;;;18.55;3.65;;;9.80;99.90;;;;;;4904004;29;20130;-62
2022/11/23 11:57:54;;;;;;;10.43;3.05;;;9.80;99.90;;;;;;4896024;29;20060;-61
2022/11/23 12:00:20;;;;;;;21.15;3.85;;;9.70;99.90;;;;;;4899864;29;20052;-62
2022/11/23 12:03:19;;;;;;;18.77;3.50;;;9.70;99.90;;;;;;4888703;29;20452;-62
2022/11/23 12:05:53;;;;;;;17.60;3.53;;;9.70;99.90;;;;;;4887964;29;20040;-62
2022/11/23 12:08:32;;;;;;;16.27;4.10;;;9.70;99.90;;;;;;4896325;29;20161;-62
2022/11/23 12:11:01;;;;;;;17.25;3.65;;;9.70;99.90;;;;;;4904593;29;20135;-61
2022/11/23 12:13:39;;;;;;;17.85;4.05;;;9.60;99.90;;;;;;4903443;29;20044;-62
2022/11/23 12:16:20;;;;;;;15.65;3.83;;;9.60;99.90;;;;;;4902949;29;20359;-61
2022/11/23 12:19:13;;;;;;;15.10;3.50;;;9.70;99.90;;;;;;4903442;29;20043;-62
2022/11/23 12:21:39;;;;;;;;;;;9.70;99.90;;;;;;4889671;29;20413;-61
2022/11/23 12:24:41;;;;;;;17.85;3.78;;;9.70;99.90;;;;;;4900231;29;19927;-61
2022/11/23 12:27:38;;;;;;;18.55;3.78;;;9.80;99.90;;;;;;4900627;29;21293;-62
2022/11/23 12:30:34;;;;;;;15.45;2.88;;;9.80;99.90;;;;;;4876504;29;20066;-62
2022/11/23 12:33:33;;;;;;;16.08;3.47;;;9.90;99.90;;;;;;4893130;29;20955;-61
2022/11/23 12:35:59;;;;;;;10.45;2.80;;;10.00;99.90;;;;;;4890724;29;20072;-61
2022/11/23 12:38:37;;;;;;;11.60;2.90;;;10.10;99.90;;;;;;4903523;29;20223;-62
2022/11/23 12:41:19;;;;;;;14.02;3.35;;;10.20;99.90;;;;;;4890925;28;20051;-60
2022/11/23 12:43:53;;;;;;;10.85;2.67;;;10.30;99.90;;;;;;4920376;28;20090;-60
2022/11/23 12:46:47;;;;;;;13.38;2.92;;;10.50;99.90;;;;;;4920947;28;20082;-61
2022/11/23 12:50:03;;;;;;;17.33;3.30;;;10.60;99.90;;;;;;4924721;28;20288;-61
2022/11/23 12:52:57;;;;;;;18.92;3.08;;;10.70;99.90;;;;;;4881681;29;20052;-62